sensor_id;sensor_type;location;lat;lon;timestamp;pressure;altitude;pressure_sealevel;temperature;humidity
78309;BME280;67566;42.022;21.356;2023-02-28T00:01:39;99159.25;;;6.38;70.83
78309;BME280;67566;42.022;21.356;2023-02-28T00:04:04;99146.56;;;6.40;69.84
78309;BME280;67566;42.022;21.356;2023-02-28T00:06:30;99152.91;;;6.45;70.55
78309;BME280;67566;42.022;21.356;2023-02-28T00:08:55;99156.38;;;6.45;71.00
78309;BME280;67566;42.022;21.356;2023-02-28T00:11:21;99159.56;;;6.47;70.39
78309;BME280;67566;42.022;21.356;2023-02-28T00:13:47;99159.31;;;6.49;70.39
78309;BME280;67566;42.022;21.356;2023-02-28T00:16:16;99155.31;;;6.51;70.82
78309;BME280;67566;42.022;21.356;2023-02-28T00:18:42;99155.84;;;6.53;70.74
78309;BME280;67566;42.022;21.356;2023-02-28T00:21:08;99158.00;;;6.56;69.88
78309;BME280;67566;42.022;21.356;2023-02-28T00:23:34;99157.47;;;6.59;70.52
78309;BME280;67566;42.022;21.356;2023-02-28T00:26:00;99155.63;;;6.60;70.52
78309;BME280;67566;42.022;21.356;2023-02-28T00:28:26;99148.75;;;6.59;70.92
78309;BME280;67566;42.022;21.356;2023-02-28T00:30:52;99154.56;;;6.61;70.86
78309;BME280;67566;42.022;21.356;2023-02-28T00:33:18;99160.94;;;6.65;70.88
78309;BME280;67566;42.022;21.356;2023-02-28T00:35:43;99160.16;;;6.65;71.47
78309;BME280;67566;42.022;21.356;2023-02-28T00:38:12;99158.03;;;6.67;71.14
78309;BME280;67566;42.022;21.356;2023-02-28T00:40:38;99161.19;;;6.69;70.61
78309;BME280;67566;42.022;21.356;2023-02-28T00:43:03;99165.72;;;6.68;70.55
78309;BME280;67566;42.022;21.356;2023-02-28T00:45:29;99158.56;;;6.69;71.11
78309;BME280;67566;42.022;21.356;2023-02-28T00:47:55;99159.63;;;6.68;71.61
78309;BME280;67566;42.022;21.356;2023-02-28T00:50:20;99155.13;;;6.68;71.33
78309;BME280;67566;42.022;21.356;2023-02-28T00:52:46;99152.47;;;6.68;70.58
78309;BME280;67566;42.022;21.356;2023-02-28T00:55:12;99160.41;;;6.68;70.52
78309;BME280;67566;42.022;21.356;2023-02-28T00:57:38;99164.09;;;6.67;71.53
78309;BME280;67566;42.022;21.356;2023-02-28T01:00:04;99154.59;;;6.66;70.69
78309;BME280;67566;42.022;21.356;2023-02-28T01:02:30;99161.72;;;6.66;70.62
78309;BME280;67566;42.022;21.356;2023-02-28T01:04:55;99156.16;;;6.62;71.90
78309;BME280;67566;42.022;21.356;2023-02-28T01:07:23;99146.34;;;6.52;71.65
78309;BME280;67566;42.022;21.356;2023-02-28T01:09:49;99147.91;;;6.53;71.90
78309;BME280;67566;42.022;21.356;2023-02-28T01:12:14;99155.84;;;6.53;72.19
78309;BME280;67566;42.022;21.356;2023-02-28T01:14:40;99156.41;;;6.55;71.82
78309;BME280;67566;42.022;21.356;2023-02-28T01:17:06;99150.03;;;6.51;71.46
78309;BME280;67566;42.022;21.356;2023-02-28T01:19:31;99150.03;;;6.51;72.32
78309;BME280;67566;42.022;21.356;2023-02-28T01:22:00;99150.56;;;6.53;71.64
78309;BME280;67566;42.022;21.356;2023-02-28T01:24:26;99146.88;;;6.54;71.15
78309;BME280;67566;42.022;21.356;2023-02-28T01:26:51;99140.53;;;6.55;70.95
78309;BME280;67566;42.022;21.356;2023-02-28T01:29:17;99141.34;;;6.56;71.15
78309;BME280;67566;42.022;21.356;2023-02-28T01:31:42;99137.88;;;6.50;72.13
78309;BME280;67566;42.022;21.356;2023-02-28T01:34:08;99133.88;;;6.48;71.29
78309;BME280;67566;42.022;21.356;2023-02-28T01:36:33;99137.06;;;6.50;71.83
78309;BME280;67566;42.022;21.356;2023-02-28T01:38:59;99138.41;;;6.52;71.69
78309;BME280;67566;42.022;21.356;2023-02-28T01:41:27;99134.44;;;6.55;70.48
78309;BME280;67566;42.022;21.356;2023-02-28T01:46:25;99149.00;;;6.52;71.15
78309;BME280;67566;42.022;21.356;2023-02-28T01:49:08;99144.22;;;6.49;70.78
78309;BME280;67566;42.022;21.356;2023-02-28T01:51:39;99146.31;;;6.47;70.86
78309;BME280;67566;42.022;21.356;2023-02-28T01:54:14;99150.53;;;6.48;70.55
78309;BME280;67566;42.022;21.356;2023-02-28T01:56:47;99147.09;;;6.42;71.47
78309;BME280;67566;42.022;21.356;2023-02-28T01:59:29;99147.38;;;6.46;70.20
78309;BME280;67566;42.022;21.356;2023-02-28T02:01:58;99151.56;;;6.37;71.59
78309;BME280;67566;42.022;21.356;2023-02-28T02:04:27;99151.56;;;6.37;71.49
78309;BME280;67566;42.022;21.356;2023-02-28T02:06:58;99152.09;;;6.34;71.20
78309;BME280;67566;42.022;21.356;2023-02-28T02:09:24;99149.47;;;6.39;71.86
78309;BME280;67566;42.022;21.356;2023-02-28T02:11:49;99156.31;;;6.30;71.80
78309;BME280;67566;42.022;21.356;2023-02-28T02:19:52;99172.47;;;6.38;71.93
78309;BME280;67566;42.022;21.356;2023-02-28T02:25:42;99172.13;;;6.19;72.69
78309;BME280;67566;42.022;21.356;2023-02-28T02:31:13;99180.06;;;6.19;73.03
78309;BME280;67566;42.022;21.356;2023-02-28T02:39:53;99185.31;;;6.14;72.61
78309;BME280;67566;42.022;21.356;2023-02-28T02:42:28;99193.47;;;6.08;73.36
78309;BME280;67566;42.022;21.356;2023-02-28T02:45:01;99192.63;;;5.97;74.52
78309;BME280;67566;42.022;21.356;2023-02-28T02:47:30;99191.00;;;5.96;74.12
78309;BME280;67566;42.022;21.356;2023-02-28T02:49:59;99197.69;;;6.03;73.52
78309;BME280;67566;42.022;21.356;2023-02-28T02:52:45;99195.53;;;6.00;74.40
78309;BME280;67566;42.022;21.356;2023-02-28T02:55:14;99193.91;;;5.94;74.23
78309;BME280;67566;42.022;21.356;2023-02-28T02:58:01;99195.84;;;6.04;74.20
78309;BME280;67566;42.022;21.356;2023-02-28T03:00:35;99197.16;;;6.01;74.26
78309;BME280;67566;42.022;21.356;2023-02-28T03:03:04;99189.22;;;6.01;73.94
78309;BME280;67566;42.022;21.356;2023-02-28T03:08:09;99199.63;;;5.81;75.68
78309;BME280;67566;42.022;21.356;2023-02-28T03:10:41;99198.31;;;5.83;75.96
78309;BME280;67566;42.022;21.356;2023-02-28T03:25:22;99206.72;;;5.75;74.70
78309;BME280;67566;42.022;21.356;2023-02-28T03:30:42;99198.78;;;5.75;74.77
78309;BME280;67566;42.022;21.356;2023-02-28T03:33:24;99204.03;;;5.70;74.54
78309;BME280;67566;42.022;21.356;2023-02-28T03:35:56;99200.88;;;5.68;75.24
78309;BME280;67566;42.022;21.356;2023-02-28T03:38:31;99208.78;;;5.68;74.65
78309;BME280;67566;42.022;21.356;2023-02-28T03:41:12;99212.25;;;5.74;74.34
78309;BME280;67566;42.022;21.356;2023-02-28T03:43:43;99209.16;;;5.82;74.50
78309;BME280;67566;42.022;21.356;2023-02-28T03:46:12;99214.16;;;5.83;73.89
78309;BME280;67566;42.022;21.356;2023-02-28T03:48:51;99202.56;;;5.84;73.76
78309;BME280;67566;42.022;21.356;2023-02-28T03:51:19;99219.41;;;5.73;75.13
78309;BME280;67566;42.022;21.356;2023-02-28T03:53:52;99206.72;;;5.75;74.65
78309;BME280;67566;42.022;21.356;2023-02-28T03:56:32;99208.34;;;5.81;75.06
78309;BME280;67566;42.022;21.356;2023-02-28T03:59:12;99218.97;;;5.92;74.79
78309;BME280;67566;42.022;21.356;2023-02-28T04:01:42;99215.38;;;5.98;73.65
78309;BME280;67566;42.022;21.356;2023-02-28T04:04:09;99216.97;;;6.04;73.86
78309;BME280;67566;42.022;21.356;2023-02-28T04:06:36;99212.22;;;6.06;73.78
78309;BME280;67566;42.022;21.356;2023-02-28T04:09:03;99225.19;;;6.08;73.23
78309;BME280;67566;42.022;21.356;2023-02-28T04:11:35;99221.78;;;6.12;72.61
78309;BME280;67566;42.022;21.356;2023-02-28T04:14:02;99217.03;;;6.14;73.53
78309;BME280;67566;42.022;21.356;2023-02-28T04:16:29;99220.75;;;6.18;72.38
78309;BME280;67566;42.022;21.356;2023-02-28T04:18:54;99221.84;;;6.22;72.48
78309;BME280;67566;42.022;21.356;2023-02-28T04:21:28;99225.53;;;6.21;73.19
78309;BME280;67566;42.022;21.356;2023-02-28T04:23:54;99219.19;;;6.17;73.32
78309;BME280;67566;42.022;21.356;2023-02-28T04:26:19;99216.78;;;6.16;72.78
78309;BME280;67566;42.022;21.356;2023-02-28T04:28:45;99219.69;;;6.14;73.97
78309;BME280;67566;42.022;21.356;2023-02-28T04:31:10;99216.00;;;6.15;73.23
78309;BME280;67566;42.022;21.356;2023-02-28T04:33:35;99225.16;;;6.02;73.72
78309;BME280;67566;42.022;21.356;2023-02-28T04:36:05;99230.69;;;6.01;74.91
78309;BME280;67566;42.022;21.356;2023-02-28T04:38:34;99240.22;;;6.02;74.58
78309;BME280;67566;42.022;21.356;2023-02-28T04:40:59;99235.22;;;6.05;74.26
78309;BME280;67566;42.022;21.356;2023-02-28T04:43:29;99236.81;;;6.01;74.09
78309;BME280;67566;42.022;21.356;2023-02-28T04:45:56;99233.06;;;5.97;75.15
78309;BME280;67566;42.022;21.356;2023-02-28T04:48:23;99222.94;;;5.89;75.30
78309;BME280;67566;42.022;21.356;2023-02-28T04:50:49;99227.16;;;5.90;75.47
78309;BME280;67566;42.022;21.356;2023-02-28T04:53:14;99228.41;;;5.77;76.24
78309;BME280;67566;42.022;21.356;2023-02-28T04:55:40;99226.50;;;5.73;76.41
78309;BME280;67566;42.022;21.356;2023-02-28T04:58:05;99225.44;;;5.68;76.29
78309;BME280;67566;42.022;21.356;2023-02-28T05:00:31;99224.59;;;5.63;76.95
78309;BME280;67566;42.022;21.356;2023-02-28T05:02:56;99230.97;;;5.67;76.92
78309;BME280;67566;42.022;21.356;2023-02-28T05:05:22;99232.91;;;5.77;76.10
78309;BME280;67566;42.022;21.356;2023-02-28T05:07:47;99237.91;;;5.78;76.75
78309;BME280;67566;42.022;21.356;2023-02-28T05:10:13;99233.94;;;5.76;75.87
78309;BME280;67566;42.022;21.356;2023-02-28T05:12:38;99233.94;;;5.76;76.83
78309;BME280;67566;42.022;21.356;2023-02-28T05:15:04;99226.78;;;5.76;75.86
78309;BME280;67566;42.022;21.356;2023-02-28T05:17:30;99243.72;;;5.75;75.88
78309;BME280;67566;42.022;21.356;2023-02-28T05:19:56;99244.53;;;5.81;76.32
78309;BME280;67566;42.022;21.356;2023-02-28T05:22:22;99246.34;;;5.75;76.01
78309;BME280;67566;42.022;21.356;2023-02-28T05:24:47;99259.84;;;5.79;76.13
78309;BME280;67566;42.022;21.356;2023-02-28T05:27:13;99257.25;;;5.84;76.18
78309;BME280;67566;42.022;21.356;2023-02-28T05:29:38;99260.72;;;5.90;75.53
78309;BME280;67566;42.022;21.356;2023-02-28T05:32:11;99266.13;;;6.00;75.67
78309;BME280;67566;42.022;21.356;2023-02-28T05:34:38;99264.81;;;6.02;74.80
78309;BME280;67566;42.022;21.356;2023-02-28T05:37:05;99265.34;;;6.04;75.11
78309;BME280;67566;42.022;21.356;2023-02-28T05:39:30;99268.31;;;6.08;75.00
78309;BME280;67566;42.022;21.356;2023-02-28T05:41:56;99270.91;;;6.03;75.48
78309;BME280;67566;42.022;21.356;2023-02-28T05:44:21;99264.31;;;6.05;75.13
78309;BME280;67566;42.022;21.356;2023-02-28T05:46:47;99263.03;;;6.08;75.81
78309;BME280;67566;42.022;21.356;2023-02-28T05:49:12;99262.19;;;6.08;74.39
78309;BME280;67566;42.022;21.356;2023-02-28T05:51:37;99272.19;;;6.00;74.91
78309;BME280;67566;42.022;21.356;2023-02-28T05:54:06;99278.84;;;6.03;74.99
78309;BME280;67566;42.022;21.356;2023-02-28T05:56:32;99280.97;;;6.06;74.78
78309;BME280;67566;42.022;21.356;2023-02-28T05:58:59;99283.44;;;6.18;74.28
78309;BME280;67566;42.022;21.356;2023-02-28T06:01:45;99288.25;;;6.26;73.68
78309;BME280;67566;42.022;21.356;2023-02-28T06:04:14;99294.63;;;6.30;73.55
78309;BME280;67566;42.022;21.356;2023-02-28T06:06:43;99298.06;;;6.36;73.63
78309;BME280;67566;42.022;21.356;2023-02-28T06:09:10;99297.56;;;6.39;73.00
78309;BME280;67566;42.022;21.356;2023-02-28T06:11:35;99302.91;;;6.44;73.75
78309;BME280;67566;42.022;21.356;2023-02-28T06:14:01;99296.31;;;6.47;73.46
78309;BME280;67566;42.022;21.356;2023-02-28T06:16:28;99306.16;;;6.56;72.60
78309;BME280;67566;42.022;21.356;2023-02-28T06:18:57;99302.81;;;6.71;72.59
78309;BME280;67566;42.022;21.356;2023-02-28T06:21:22;99303.34;;;6.78;71.93
78309;BME280;67566;42.022;21.356;2023-02-28T06:23:47;99304.34;;;6.67;71.74
78309;BME280;67566;42.022;21.356;2023-02-28T06:26:13;99314.75;;;6.84;71.73
78309;BME280;67566;42.022;21.356;2023-02-28T06:28:39;99310.59;;;6.98;71.95
78309;BME280;67566;42.022;21.356;2023-02-28T06:31:09;99313.19;;;6.93;71.46
78309;BME280;67566;42.022;21.356;2023-02-28T06:33:37;99313.16;;;6.83;71.29
78309;BME280;67566;42.022;21.356;2023-02-28T06:36:03;99315.03;;;6.88;71.73
78309;BME280;67566;42.022;21.356;2023-02-28T06:38:29;99319.06;;;6.95;71.93
78309;BME280;67566;42.022;21.356;2023-02-28T06:40:56;99318.25;;;6.95;71.89
78309;BME280;67566;42.022;21.356;2023-02-28T06:43:24;99322.47;;;6.91;70.88
78309;BME280;67566;42.022;21.356;2023-02-28T06:45:49;99322.72;;;6.89;71.82
78309;BME280;67566;42.022;21.356;2023-02-28T06:48:15;99324.13;;;7.07;71.98
78309;BME280;67566;42.022;21.356;2023-02-28T06:50:40;99331.88;;;7.24;70.29
78309;BME280;67566;42.022;21.356;2023-02-28T06:53:06;99332.19;;;7.38;70.51
78309;BME280;67566;42.022;21.356;2023-02-28T06:55:31;99333.00;;;7.49;69.74
78309;BME280;67566;42.022;21.356;2023-02-28T06:57:57;99335.41;;;7.61;69.58
78309;BME280;67566;42.022;21.356;2023-02-28T07:00:49;99343.13;;;7.72;69.81
78309;BME280;67566;42.022;21.356;2023-02-28T07:03:16;99338.38;;;7.85;69.50
78309;BME280;67566;42.022;21.356;2023-02-28T07:05:42;99338.09;;;7.97;68.87
78309;BME280;67566;42.022;21.356;2023-02-28T07:08:08;99338.91;;;8.12;68.27
78309;BME280;67566;42.022;21.356;2023-02-28T07:10:33;99346.59;;;8.24;68.11
78309;BME280;67566;42.022;21.356;2023-02-28T07:13:00;99341.28;;;8.35;67.09
78309;BME280;67566;42.022;21.356;2023-02-28T07:15:25;99341.56;;;8.43;67.36
78309;BME280;67566;42.022;21.356;2023-02-28T07:17:51;99340.75;;;8.53;67.66
78309;BME280;67566;42.022;21.356;2023-02-28T07:20:17;99346.06;;;8.53;66.37
78309;BME280;67566;42.022;21.356;2023-02-28T07:22:42;99345.78;;;8.65;67.13
78309;BME280;67566;42.022;21.356;2023-02-28T07:25:08;99335.94;;;8.71;66.07
78309;BME280;67566;42.022;21.356;2023-02-28T07:27:34;99335.69;;;8.62;65.82
78309;BME280;67566;42.022;21.356;2023-02-28T07:30:00;99338.06;;;8.74;65.81
78309;BME280;67566;42.022;21.356;2023-02-28T07:32:29;99326.88;;;8.87;65.73
78309;BME280;67566;42.022;21.356;2023-02-28T07:34:54;99337.69;;;9.01;65.32
78309;BME280;67566;42.022;21.356;2023-02-28T07:37:20;99333.66;;;9.14;64.80
78309;BME280;67566;42.022;21.356;2023-02-28T07:39:45;99330.16;;;9.29;64.76
78309;BME280;67566;42.022;21.356;2023-02-28T07:42:11;99327.13;;;9.51;64.35
78309;BME280;67566;42.022;21.356;2023-02-28T07:44:39;99324.50;;;9.80;64.16
78309;BME280;67566;42.022;21.356;2023-02-28T07:47:09;99322.44;;;9.77;62.64
78309;BME280;67566;42.022;21.356;2023-02-28T07:49:36;99318.34;;;9.90;62.84
78309;BME280;67566;42.022;21.356;2023-02-28T07:52:05;99318.56;;;9.93;62.46
78309;BME280;67566;42.022;21.356;2023-02-28T07:54:34;99308.84;;;10.13;61.89
78309;BME280;67566;42.022;21.356;2023-02-28T07:57:00;99313.75;;;10.30;61.34
78309;BME280;67566;42.022;21.356;2023-02-28T07:59:25;99310.84;;;10.26;61.93
78309;BME280;67566;42.022;21.356;2023-02-28T08:01:51;99314.19;;;10.08;60.80
78309;BME280;67566;42.022;21.356;2023-02-28T08:04:17;99317.84;;;9.88;61.38
78309;BME280;67566;42.022;21.356;2023-02-28T08:06:42;99315.47;;;10.15;61.88
78309;BME280;67566;42.022;21.356;2023-02-28T08:09:08;99311.31;;;10.38;61.96
78309;BME280;67566;42.022;21.356;2023-02-28T08:11:34;99303.22;;;10.73;60.86
78309;BME280;67566;42.022;21.356;2023-02-28T08:13:59;99300.56;;;11.16;59.83
78309;BME280;67566;42.022;21.356;2023-02-28T08:16:24;99296.41;;;11.48;59.90
78309;BME280;67566;42.022;21.356;2023-02-28T08:18:53;99303.81;;;11.70;58.82
78309;BME280;67566;42.022;21.356;2023-02-28T08:21:20;99301.56;;;11.77;58.10
78309;BME280;67566;42.022;21.356;2023-02-28T08:23:47;99297.03;;;11.78;57.75
78309;BME280;67566;42.022;21.356;2023-02-28T08:26:14;99303.88;;;11.84;57.76
78309;BME280;67566;42.022;21.356;2023-02-28T08:28:39;99298.19;;;11.71;57.46
78309;BME280;67566;42.022;21.356;2023-02-28T08:31:12;99297.00;;;11.64;58.36
78309;BME280;67566;42.022;21.356;2023-02-28T08:33:39;99295.38;;;11.63;58.00
78309;BME280;67566;42.022;21.356;2023-02-28T08:36:06;99295.38;;;11.63;58.09
78309;BME280;67566;42.022;21.356;2023-02-28T08:38:32;99287.31;;;11.68;57.60
78309;BME280;67566;42.022;21.356;2023-02-28T08:41:03;99286.66;;;11.76;57.54
78309;BME280;67566;42.022;21.356;2023-02-28T08:43:31;99289.97;;;11.87;56.90
78309;BME280;67566;42.022;21.356;2023-02-28T08:45:56;99290.94;;;12.10;56.88
78309;BME280;67566;42.022;21.356;2023-02-28T08:48:23;99288.91;;;12.35;55.61
78309;BME280;67566;42.022;21.356;2023-02-28T08:51:00;99289.22;;;12.47;54.87
78309;BME280;67566;42.022;21.356;2023-02-28T08:53:25;99282.88;;;12.43;54.49
78309;BME280;67566;42.022;21.356;2023-02-28T08:56:03;99280.63;;;12.50;55.21
78309;BME280;67566;42.022;21.356;2023-02-28T08:58:28;99275.16;;;12.41;54.68
78309;BME280;67566;42.022;21.356;2023-02-28T09:00:55;99277.06;;;12.41;55.40
78309;BME280;67566;42.022;21.356;2023-02-28T09:03:25;99271.63;;;12.46;55.37
78309;BME280;67566;42.022;21.356;2023-02-28T09:06:01;99272.22;;;12.84;55.32
78309;BME280;67566;42.022;21.356;2023-02-28T09:08:28;99274.13;;;13.20;54.48
78309;BME280;67566;42.022;21.356;2023-02-28T09:10:58;99273.06;;;13.81;53.52
78309;BME280;67566;42.022;21.356;2023-02-28T09:13:27;99273.16;;;14.61;52.50
78309;BME280;67566;42.022;21.356;2023-02-28T09:15:54;99273.13;;;15.27;50.89
78309;BME280;67566;42.022;21.356;2023-02-28T09:18:20;99268.75;;;15.75;48.74
78309;BME280;67566;42.022;21.356;2023-02-28T09:20:46;99272.34;;;15.96;48.10
78309;BME280;67566;42.022;21.356;2023-02-28T09:23:46;99266.41;;;16.29;47.94
78309;BME280;67566;42.022;21.356;2023-02-28T09:26:30;99259.69;;;16.44;46.61
78309;BME280;67566;42.022;21.356;2023-02-28T09:28:56;99255.13;;;16.45;45.81
78309;BME280;67566;42.022;21.356;2023-02-28T09:31:26;99260.06;;;16.34;45.94
78309;BME280;67566;42.022;21.356;2023-02-28T09:33:54;99248.66;;;16.37;46.38
78309;BME280;67566;42.022;21.356;2023-02-28T09:36:21;99256.66;;;16.07;46.65
78309;BME280;67566;42.022;21.356;2023-02-28T09:38:47;99257.38;;;15.78;47.37
78309;BME280;67566;42.022;21.356;2023-02-28T09:41:25;99252.94;;;15.82;47.83
78309;BME280;67566;42.022;21.356;2023-02-28T09:43:56;99246.75;;;15.99;46.95
78309;BME280;67566;42.022;21.356;2023-02-28T09:46:35;99244.66;;;16.04;47.48
78309;BME280;67566;42.022;21.356;2023-02-28T09:49:07;99243.94;;;16.34;46.43
78309;BME280;67566;42.022;21.356;2023-02-28T09:54:14;99243.47;;;16.91;45.65
78309;BME280;67566;42.022;21.356;2023-02-28T09:56:47;99240.03;;;17.12;44.70
78309;BME280;67566;42.022;21.356;2023-02-28T10:02:09;99237.38;;;17.79;44.54
78309;BME280;67566;42.022;21.356;2023-02-28T10:04:48;99242.50;;;17.92;43.70
78309;BME280;67566;42.022;21.356;2023-02-28T10:12:53;99226.00;;;17.94;43.70
78309;BME280;67566;42.022;21.356;2023-02-28T10:15:23;99224.22;;;17.86;43.58
78309;BME280;67566;42.022;21.356;2023-02-28T10:17:54;99213.81;;;17.76;42.15
78309;BME280;67566;42.022;21.356;2023-02-28T10:20:23;99214.16;;;17.74;43.53
78309;BME280;67566;42.022;21.356;2023-02-28T10:23:19;99209.22;;;17.76;43.24
78309;BME280;67566;42.022;21.356;2023-02-28T10:25:53;99205.50;;;18.02;42.94
78309;BME280;67566;42.022;21.356;2023-02-28T10:28:20;99194.38;;;18.16;42.32
78309;BME280;67566;42.022;21.356;2023-02-28T10:30:48;99194.91;;;17.51;42.90
78309;BME280;67566;42.022;21.356;2023-02-28T10:33:29;99195.53;;;16.42;44.22
78309;BME280;67566;42.022;21.356;2023-02-28T10:35:59;99198.53;;;16.71;44.49
78309;BME280;67566;42.022;21.356;2023-02-28T10:38:28;99195.84;;;16.41;45.46
78309;BME280;67566;42.022;21.356;2023-02-28T10:41:04;99193.19;;;16.92;44.38
78309;BME280;67566;42.022;21.356;2023-02-28T10:43:30;99195.88;;;17.13;43.41
78309;BME280;67566;42.022;21.356;2023-02-28T10:51:04;99181.72;;;16.14;46.30
78309;BME280;67566;42.022;21.356;2023-02-28T10:53:31;99179.00;;;16.53;45.16
78309;BME280;67566;42.022;21.356;2023-02-28T10:58:57;99170.25;;;16.35;46.01
78309;BME280;67566;42.022;21.356;2023-02-28T11:01:39;99169.03;;;15.94;45.74
78309;BME280;67566;42.022;21.356;2023-02-28T11:04:33;99159.66;;;16.00;46.70
78309;BME280;67566;42.022;21.356;2023-02-28T11:07:21;99152.50;;;16.13;45.38
78309;BME280;67566;42.022;21.356;2023-02-28T11:09:52;99155.69;;;15.50;46.64
78309;BME280;67566;42.022;21.356;2023-02-28T11:12:25;99151.25;;;15.54;47.27
78309;BME280;67566;42.022;21.356;2023-02-28T11:14:57;99144.34;;;15.36;47.56
78309;BME280;67566;42.022;21.356;2023-02-28T11:17:25;99143.75;;;16.24;46.56
78309;BME280;67566;42.022;21.356;2023-02-28T11:19:55;99142.84;;;16.92;45.11
78309;BME280;67566;42.022;21.356;2023-02-28T11:22:25;99147.19;;;16.34;45.43
78309;BME280;67566;42.022;21.356;2023-02-28T11:24:55;99137.72;;;16.99;45.19
78309;BME280;67566;42.022;21.356;2023-02-28T11:30:00;99141.00;;;17.72;43.67
78309;BME280;67566;42.022;21.356;2023-02-28T11:32:27;99122.38;;;17.79;42.99
78309;BME280;67566;42.022;21.356;2023-02-28T11:35:24;99129.22;;;18.14;42.61
78309;BME280;67566;42.022;21.356;2023-02-28T11:37:51;99127.78;;;18.16;42.85
78309;BME280;67566;42.022;21.356;2023-02-28T11:40:22;99124.53;;;18.10;42.43
78309;BME280;67566;42.022;21.356;2023-02-28T11:43:00;99116.63;;;17.68;43.84
78309;BME280;67566;42.022;21.356;2023-02-28T11:48:21;99111.50;;;18.25;42.74
78309;BME280;67566;42.022;21.356;2023-02-28T11:50:57;99101.28;;;17.93;41.86
78309;BME280;67566;42.022;21.356;2023-02-28T11:58:59;99097.38;;;16.99;45.07
78309;BME280;67566;42.022;21.356;2023-02-28T12:04:25;99086.16;;;16.34;46.14
78309;BME280;67566;42.022;21.356;2023-02-28T12:06:57;99081.31;;;16.28;46.38
78309;BME280;67566;42.022;21.356;2023-02-28T12:18:00;99068.66;;;16.49;45.88
78309;BME280;67566;42.022;21.356;2023-02-28T12:28:39;99043.88;;;16.22;46.50
78309;BME280;67566;42.022;21.356;2023-02-28T12:31:17;99034.44;;;16.16;47.40
78309;BME280;67566;42.022;21.356;2023-02-28T12:33:48;99031.78;;;16.16;46.70
78309;BME280;67566;42.022;21.356;2023-02-28T12:36:18;99026.41;;;16.16;47.61
78309;BME280;67566;42.022;21.356;2023-02-28T12:39:26;99033.41;;;16.30;47.49
78309;BME280;67566;42.022;21.356;2023-02-28T12:41:56;99020.34;;;15.60;48.61
78309;BME280;67566;42.022;21.356;2023-02-28T12:44:32;99015.88;;;15.43;49.45
78309;BME280;67566;42.022;21.356;2023-02-28T12:47:02;99010.97;;;15.45;49.56
78309;BME280;67566;42.022;21.356;2023-02-28T12:49:33;98999.94;;;14.90;51.08
78309;BME280;67566;42.022;21.356;2023-02-28T12:52:03;99009.00;;;15.16;50.45
78309;BME280;67566;42.022;21.356;2023-02-28T12:54:38;98999.56;;;15.48;49.47
78309;BME280;67566;42.022;21.356;2023-02-28T12:57:14;98997.25;;;15.76;49.28
78309;BME280;67566;42.022;21.356;2023-02-28T12:59:50;98994.97;;;15.19;50.77
78309;BME280;67566;42.022;21.356;2023-02-28T13:05:26;98984.97;;;15.66;49.96
78309;BME280;67566;42.022;21.356;2023-02-28T13:10:20;98979.59;;;15.96;49.22
78309;BME280;67566;42.022;21.356;2023-02-28T13:12:50;98975.84;;;15.89;49.76
78309;BME280;67566;42.022;21.356;2023-02-28T13:15:22;98978.53;;;15.89;50.10
78309;BME280;67566;42.022;21.356;2023-02-28T13:17:55;98966.97;;;15.28;50.88
78309;BME280;67566;42.022;21.356;2023-02-28T13:20:26;98966.31;;;14.93;51.96
78309;BME280;67566;42.022;21.356;2023-02-28T13:22:54;98956.44;;;14.67;52.84
78309;BME280;67566;42.022;21.356;2023-02-28T13:28:12;98951.94;;;15.06;52.00
78309;BME280;67566;42.022;21.356;2023-02-28T13:34:12;98948.31;;;15.41;51.25
78309;BME280;67566;42.022;21.356;2023-02-28T13:36:30;98944.94;;;15.53;51.06
78309;BME280;67566;42.022;21.356;2023-02-28T13:46:33;98945.16;;;15.39;50.81
78309;BME280;67566;42.022;21.356;2023-02-28T14:05:44;98925.59;;;14.35;53.84
78309;BME280;67566;42.022;21.356;2023-02-28T14:08:20;98934.38;;;14.62;53.33
78309;BME280;67566;42.022;21.356;2023-02-28T14:10:49;98928.06;;;14.58;53.57
78309;BME280;67566;42.022;21.356;2023-02-28T14:13:41;98924.00;;;14.60;53.09
78309;BME280;67566;42.022;21.356;2023-02-28T14:16:11;98920.69;;;14.37;53.33
78309;BME280;67566;42.022;21.356;2023-02-28T14:18:42;98923.53;;;14.06;54.81
78309;BME280;67566;42.022;21.356;2023-02-28T14:21:26;98931.88;;;14.04;54.52
78309;BME280;67566;42.022;21.356;2023-02-28T14:29:59;98929.22;;;13.87;55.71
78309;BME280;67566;42.022;21.356;2023-02-28T14:35:18;98929.91;;;13.44;56.79
78309;BME280;67566;42.022;21.356;2023-02-28T14:37:45;98922.44;;;13.23;56.53
78309;BME280;67566;42.022;21.356;2023-02-28T14:40:21;98922.66;;;13.35;56.86
78309;BME280;67566;42.022;21.356;2023-02-28T14:42:58;98927.56;;;13.42;57.15
78309;BME280;67566;42.022;21.356;2023-02-28T14:45:27;98924.38;;;13.31;57.47
78309;BME280;67566;42.022;21.356;2023-02-28T14:47:54;98931.94;;;13.38;56.82
78309;BME280;67566;42.022;21.356;2023-02-28T14:50:22;98937.78;;;13.09;58.47
78309;BME280;67566;42.022;21.356;2023-02-28T14:52:52;98935.53;;;12.93;59.14
78309;BME280;67566;42.022;21.356;2023-02-28T14:55:18;98931.28;;;12.92;59.42
78309;BME280;67566;42.022;21.356;2023-02-28T14:57:56;98921.75;;;12.69;59.97
78309;BME280;67566;42.022;21.356;2023-02-28T15:00:29;98926.69;;;12.61;60.13
78309;BME280;67566;42.022;21.356;2023-02-28T15:02:56;98930.47;;;12.60;60.22
78309;BME280;67566;42.022;21.356;2023-02-28T15:05:28;98931.88;;;12.58;59.53
78309;BME280;67566;42.022;21.356;2023-02-28T15:08:05;98932.81;;;12.53;60.04
78309;BME280;67566;42.022;21.356;2023-02-28T15:10:31;98944.13;;;12.59;60.51
78309;BME280;67566;42.022;21.356;2023-02-28T15:13:05;98941.41;;;12.73;59.95
78309;BME280;67566;42.022;21.356;2023-02-28T15:21:13;98950.00;;;12.70;59.69
78309;BME280;67566;42.022;21.356;2023-02-28T15:23:42;98949.09;;;12.74;60.22
78309;BME280;67566;42.022;21.356;2023-02-28T15:26:21;98946.50;;;12.60;61.28